Flight Track Log - Related Links

Times and Time Zones

All times are in EDT time to prevent confusion due to time zone crossing. See the ASQ6041 flight status page for this flight to view local times or setup timezone preferences in your user account.

Time Position Orientation Groundspeed Altitude Reporting Facility
EDT Latitude Longitude Course Direction KTS MPH feet Rate Location/Type
Tue 13:30:47 39.7833 -104.6667 231° Southwest 227 261 8,100  Level Denver TRACON
Tue 13:31:41 39.7167 -104.7000 201° Southwest 270 311 10,100 1,789 Climbing Denver TRACON
Tue 13:32:00 39.6852 -104.9467 234° Southwest  Level FlightAware Approximate
Tue 13:32:41 39.6500 -104.7500 210° Southwest 318 366 11,500  Level Denver TRACON
Tue 13:33:00 39.6329 -105.0427 235° Southwest  Level FlightAware Approximate
Tue 13:34:00 39.5802 -105.1381 229° Southwest  Level FlightAware Approximate
Tue 13:34:10 39.5144 -104.8422 208° Southwest 361 415 13,600  Level Denver Center
Tue 13:35:00 39.5224 -105.2284 232° Southwest  Level FlightAware Approximate
Tue 13:35:12 39.4192 -104.9008 205° Southwest 380 437 15,100  Level Denver Center
Tue 13:36:00 39.4634 -105.3242 231° Southwest  Level FlightAware Approximate
Tue 13:36:14 39.3231 -104.9561 204° Southwest 381 438 16,700  Level Denver Center
Tue 13:37:16 39.2172 -105.0211 205° Southwest 392 451 17,900 629 Climbing Denver Center
Tue 13:38:18 39.1158 -105.0783 204° Southwest 395 455 18,000 48 Climbing Denver Center
Tue 13:39:20 39.0089 -105.1403 204° Southwest 417 480 18,000  Level Denver Center
Tue 13:40:22 38.9036 -105.2044 205° Southwest 418 481 18,000  Level Denver Center
Tue 13:41:24 38.7875 -105.2717 204° Southwest 419 482 18,000  Level Denver Center
Tue 13:42:27 38.6747 -105.3583 211° Southwest 428 493 18,000  Level Denver Center
Tue 13:43:29 38.6325 -105.4925 248° West 433 498 18,000  Level Denver Center
Tue 13:44:31 38.6169 -105.6372 262° West 432 497 18,000  Level Denver Center
Tue 13:45:33 38.5981 -105.8094 262° West 436 502 18,000  Level Denver Center
Tue 13:46:35 38.5811 -105.9567 262° West 437 503 18,000  Level Denver Center
Tue 13:47:37 38.5606 -106.1267 261° West 437 503 18,000  Level Denver Center
Tue 13:48:39 38.5464 -106.2611 262° West 427 491 18,000 -48 Level Denver Center
Tue 13:49:42 38.5653 -106.3800 282° West 347 399 17,900 -816 Descending Denver Center
Tue 13:50:44 38.5811 -106.5147 279° West 325 374 16,300 -919 Descending Denver Center
Tue 13:51:46 38.5917 -106.6189 277° West 313 360 16,000 -145 Descending Denver Center
Tue 13:52:48 38.6025 -106.7108 279° West 292 336 16,000 -339 Level Denver Center
Tue 13:53:50 38.6142 -106.7994 280° West 273 314 15,300 -677 Descending Denver Center
Tue 13:55:00 38.5295 -106.9203 228° Southwest  Level FlightAware Approximate

Login

Don't have an account? Register now (free) for customized features, flight alerts, and more!